Time;durP1;ratioP1;P1;durP2;ratioP2;P2;SDS_P1;SDS_P2;PMS_P1;PMS_P2;Temp;Humidity;BMP_temperature;BMP_pressure;BME280_temperature;BME280_humidity;BME280_pressure;Samples;Min_cycle;Max_cycle;Signal;HPM_P1;HPM_P2
2022/09/16 00:07:25;;;;;;;0.20;0.00;;;23.20;99.90;;;;;;26036685;22;20205;-71
2022/09/16 00:17:29;;;;;;;0.20;0.10;;;23.10;99.90;;;;;;26039366;22;20215;-69
2022/09/16 00:27:35;;;;;;;0.20;0.00;;;23.10;99.90;;;;;;26036985;22;20269;-69
2022/09/16 00:37:39;;;;;;;0.20;0.00;;;23.10;99.90;;;;;;26037229;22;20330;-71
2022/09/16 00:47:47;;;;;;;0.20;0.00;;;23.10;99.90;;;;;;26038498;22;20184;-70
2022/09/16 00:57:52;;;;;;;0.20;0.00;;;23.10;99.90;;;;;;26045973;22;20227;-70
2022/09/16 01:07:57;;;;;;;0.20;0.00;;;23.20;99.90;;;;;;26047319;22;20254;-69
2022/09/16 01:18:14;;;;;;;0.20;0.00;;;23.10;99.90;;;;;;26045633;22;20207;-69
2022/09/16 01:28:49;;;;;;;0.20;0.00;;;23.00;99.90;;;;;;26018634;22;20248;-69
2022/09/16 01:39:17;;;;;;;0.20;0.00;;;22.80;99.90;;;;;;26021676;22;20810;-69
2022/09/16 01:49:27;;;;;;;0.20;0.00;;;22.80;99.90;;;;;;26045172;22;20216;-69
2022/09/16 01:59:38;;;;;;;0.20;0.00;;;22.70;99.90;;;;;;26045451;22;20214;-70
2022/09/16 02:09:48;;;;;;;0.20;0.00;;;22.60;99.90;;;;;;26043813;22;20198;-70
2022/09/16 02:19:57;;;;;;;0.20;0.00;;;22.60;99.90;;;;;;26043563;22;20210;-69
2022/09/16 02:30:07;;;;;;;0.20;0.00;;;22.70;99.90;;;;;;26043972;22;20263;-68
2022/09/16 02:40:19;;;;;;;0.20;0.00;;;22.50;99.90;;;;;;26043196;22;20198;-70
2022/09/16 02:50:29;;;;;;;0.20;0.00;;;22.50;99.90;;;;;;26015021;22;20200;-70
2022/09/16 03:00:38;;;;;;;0.20;0.00;;;22.50;99.90;;;;;;26042411;22;20202;-69
2022/09/16 03:10:46;;;;;;;0.20;0.00;;;22.50;99.90;;;;;;26042592;22;20213;-69
2022/09/16 03:21:00;;;;;;;0.20;0.00;;;22.30;99.90;;;;;;26013344;22;20176;-68
2022/09/16 03:31:09;;;;;;;0.20;0.00;;;22.40;99.90;;;;;;26040276;22;20195;-69
2022/09/16 03:41:15;;;;;;;0.20;0.00;;;22.30;99.90;;;;;;26041177;22;20546;-69
2022/09/16 03:51:19;;;;;;;0.20;0.00;;;22.30;99.90;;;;;;26039320;22;20215;-69
2022/09/16 04:01:24;;;;;;;0.20;0.00;;;22.30;99.90;;;;;;26010150;22;21135;-69
2022/09/16 04:11:30;;;;;;;0.20;0.00;;;22.30;99.90;;;;;;26036842;22;20233;-69
2022/09/16 04:21:36;;;;;;;0.20;0.00;;;22.20;99.90;;;;;;26041112;22;20175;-70
2022/09/16 04:31:39;;;;;;;0.20;0.00;;;22.20;99.90;;;;;;26046622;22;20235;-70
2022/09/16 04:41:44;;;;;;;0.20;0.00;;;22.10;99.90;;;;;;26046547;22;20213;-70
2022/09/16 04:51:49;;;;;;;0.20;0.00;;;22.10;99.90;;;;;;26043193;22;20313;-69
2022/09/16 05:01:54;;;;;;;0.20;0.00;;;22.00;99.90;;;;;;26043590;22;20184;-69
2022/09/16 05:11:58;;;;;;;0.20;0.00;;;22.00;99.90;;;;;;26045831;22;20187;-70
2022/09/16 05:22:05;;;;;;;0.20;0.00;;;21.90;99.90;;;;;;26042352;22;20708;-69
2022/09/16 05:32:09;;;;;;;0.20;0.00;;;21.80;99.90;;;;;;26043987;22;20221;-69
2022/09/16 05:42:14;;;;;;;0.20;0.00;;;21.90;99.90;;;;;;26038973;22;20180;-69
2022/09/16 05:52:18;;;;;;;0.20;0.10;;;21.90;99.90;;;;;;26034610;22;20200;-69
2022/09/16 06:02:24;;;;;;;0.20;0.00;;;22.10;99.90;;;;;;26031424;22;20187;-71
2022/09/16 06:12:27;;;;;;;0.20;0.00;;;22.20;99.90;;;;;;26039046;22;20219;-70
2022/09/16 06:22:34;;;;;;;0.20;0.00;;;22.20;99.90;;;;;;26039712;22;20286;-71
2022/09/16 06:32:38;;;;;;;0.20;0.00;;;22.50;99.90;;;;;;26011230;22;20263;-71
2022/09/16 06:42:43;;;;;;;0.20;0.00;;;22.80;99.90;;;;;;26038100;22;20180;-71
2022/09/16 06:52:50;;;;;;;0.20;0.00;;;23.30;99.90;;;;;;26036522;22;20279;-70
2022/09/16 07:02:56;;;;;;;0.20;0.00;;;23.90;99.90;;;;;;26036834;22;20164;-71
2022/09/16 07:13:00;;;;;;;0.20;0.00;;;24.50;99.90;;;;;;26034916;22;20196;-70
2022/09/16 07:23:05;;;;;;;0.20;0.00;;;24.80;99.90;;;;;;26038373;22;20176;-70
2022/09/16 07:33:09;;;;;;;0.20;0.00;;;25.40;99.90;;;;;;26037325;22;20247;-70
2022/09/16 07:43:14;;;;;;;0.20;0.10;;;25.60;99.90;;;;;;26038225;22;20227;-68
2022/09/16 07:53:17;;;;;;;0.20;0.00;;;25.60;99.90;;;;;;26034305;22;20224;-71
2022/09/16 08:03:23;;;;;;;0.20;0.00;;;25.80;99.90;;;;;;26012069;22;20188;-70
2022/09/16 08:13:28;;;;;;;0.20;0.00;;;26.00;99.90;;;;;;26033132;22;20268;-71
2022/09/16 08:23:33;;;;;;;0.20;0.00;;;26.40;99.90;;;;;;26007408;22;20231;-70
2022/09/16 08:33:39;;;;;;;0.20;0.00;;;26.40;99.90;;;;;;26006945;22;20259;-68
2022/09/16 08:43:51;;;;;;;0.20;0.00;;;26.30;99.90;;;;;;26006786;22;20164;-69
2022/09/16 08:53:58;;;;;;;0.20;0.00;;;26.20;99.90;;;;;;26007709;22;20199;-68
2022/09/16 09:04:04;;;;;;;0.20;0.03;;;26.70;99.90;;;;;;26002749;22;20168;-70
2022/09/16 09:14:28;;;;;;;0.20;0.00;;;26.80;99.90;;;;;;26033219;22;20187;-72
2022/09/16 09:24:47;;;;;;;0.20;0.10;;;27.00;99.90;;;;;;26039262;22;20184;-68
2022/09/16 09:35:06;;;;;;;0.20;0.00;;;27.30;99.90;;;;;;26035897;22;20188;-68
2022/09/16 09:45:19;;;;;;;0.20;0.00;;;27.30;99.90;;;;;;26037515;22;20175;-69
2022/09/16 09:55:25;;;;;;;0.20;0.00;;;28.30;99.90;;;;;;26038328;22;20832;-68
2022/09/16 10:05:31;;;;;;;0.20;0.00;;;28.90;99.90;;;;;;26039771;22;20188;-69
2022/09/16 10:15:35;;;;;;;0.20;0.00;;;28.80;99.90;;;;;;26038455;22;20180;-69
2022/09/16 10:25:40;;;;;;;0.20;0.00;;;28.70;99.90;;;;;;26037129;22;20179;-69
2022/09/16 10:35:54;;;;;;;0.20;0.00;;;28.10;99.90;;;;;;26035849;22;20200;-69
2022/09/16 10:45:59;;;;;;;0.20;0.00;;;29.30;99.90;;;;;;26008094;22;20164;-67
2022/09/16 10:56:05;;;;;;;0.20;0.00;;;29.80;99.90;;;;;;26036327;22;20206;-68
2022/09/16 11:06:29;;;;;;;0.20;0.00;;;29.00;99.90;;;;;;26008658;22;20198;-69
2022/09/16 11:16:59;;;;;;;0.20;0.10;;;29.80;99.90;;;;;;26006953;22;20198;-68
2022/09/16 11:27:12;;;;;;;0.20;0.10;;;29.20;99.90;;;;;;26037604;22;20156;-68
2022/09/16 11:37:23;;;;;;;0.20;0.00;;;27.40;99.90;;;;;;26037952;22;20190;-68
2022/09/16 11:47:43;;;;;;;0.20;0.00;;;26.70;99.90;;;;;;26035273;22;20155;-69
2022/09/16 11:57:52;;;;;;;0.20;0.00;;;26.40;99.90;;;;;;26037805;22;20200;-70
2022/09/16 12:08:04;;;;;;;0.20;0.00;;;26.40;99.90;;;;;;26037858;22;20223;-70
2022/09/16 12:18:13;;;;;;;0.20;0.00;;;26.50;99.90;;;;;;26036775;22;21049;-69
2022/09/16 12:28:24;;;;;;;0.20;0.00;;;26.20;99.90;;;;;;26035596;22;20186;-70
2022/09/16 12:38:28;;;;;;;0.20;0.00;;;26.40;99.90;;;;;;26022807;22;20163;-69
2022/09/16 12:48:53;;;;;;;0.20;0.10;;;27.70;99.90;;;;;;26034140;22;20256;-70
2022/09/16 12:59:39;;;;;;;0.20;0.00;;;27.60;99.90;;;;;;26016321;22;20263;-68
2022/09/16 13:09:46;;;;;;;0.20;0.00;;;28.10;99.90;;;;;;26017051;22;20187;-69
2022/09/16 13:19:53;;;;;;;0.20;0.00;;;30.00;99.90;;;;;;26017728;22;20167;-69
2022/09/16 13:30:29;;;;;;;0.20;0.00;;;28.60;99.90;;;;;;26043660;22;20180;-70
2022/09/16 13:40:33;;;;;;;0.20;0.00;;;27.30;99.90;;;;;;26020006;22;20272;-70
2022/09/16 13:50:42;;;;;;;0.20;0.00;;;26.90;99.90;;;;;;26041831;22;20254;-70
2022/09/16 14:01:01;;;;;;;0.20;0.00;;;26.50;99.90;;;;;;26039163;22;20171;-68
2022/09/16 14:11:14;;;;;;;0.20;0.10;;;26.60;99.90;;;;;;26036629;22;20196;-68
2022/09/16 14:21:19;;;;;;;0.20;0.00;;;26.60;99.90;;;;;;26035288;22;20227;-68
2022/09/16 14:31:31;;;;;;;0.20;0.00;;;26.50;99.90;;;;;;26033623;22;20244;-69
2022/09/16 14:41:37;;;;;;;0.20;0.00;;;26.20;99.90;;;;;;26036205;22;20163;-71
2022/09/16 14:51:46;;;;;;;0.20;0.00;;;26.40;99.90;;;;;;26008630;22;20295;-70
2022/09/16 15:01:50;;;;;;;0.20;0.00;;;26.60;99.90;;;;;;26031234;22;20156;-70
2022/09/16 15:11:59;;;;;;;0.20;0.00;;;26.60;99.90;;;;;;26030296;22;20192;-68
2022/09/16 15:22:04;;;;;;;0.20;0.00;;;26.90;99.90;;;;;;26028592;22;20175;-69
2022/09/16 15:32:17;;;;;;;0.20;0.00;;;26.60;99.90;;;;;;26007388;22;20302;-68
2022/09/16 15:42:22;;;;;;;0.20;0.00;;;26.30;99.90;;;;;;25980071;22;20160;-69
2022/09/16 15:52:28;;;;;;;0.20;0.00;;;26.30;99.90;;;;;;26005576;22;20263;-68
2022/09/16 16:02:36;;;;;;;0.20;0.00;;;26.20;99.90;;;;;;26005286;22;20228;-69
2022/09/16 16:12:47;;;;;;;0.20;0.00;;;26.10;99.90;;;;;;26031652;22;20624;-67
2022/09/16 16:22:51;;;;;;;0.20;0.00;;;26.20;99.90;;;;;;26031985;22;20172;-71
2022/09/16 16:32:57;;;;;;;0.20;0.00;;;26.30;99.90;;;;;;26038712;22;20208;-71
2022/09/16 16:43:01;;;;;;;0.20;0.00;;;26.40;99.90;;;;;;26010733;22;20230;-69
2022/09/16 16:53:06;;;;;;;0.20;0.00;;;26.60;99.90;;;;;;26039322;22;20203;-69
2022/09/16 17:03:10;;;;;;;0.20;0.00;;;26.30;99.90;;;;;;26040328;22;20236;-69
2022/09/16 17:13:15;;;;;;;0.20;0.00;;;26.00;99.90;;;;;;26041642;22;20251;-70
2022/09/16 17:23:18;;;;;;;0.20;0.10;;;25.40;99.90;;;;;;26012661;22;20206;-70
2022/09/16 17:33:24;;;;;;;0.20;0.00;;;24.70;99.90;;;;;;26039056;22;20208;-73
2022/09/16 17:43:27;;;;;;;0.20;0.00;;;24.70;99.90;;;;;;26038322;22;20172;-71
2022/09/16 17:53:37;;;;;;;0.20;0.00;;;24.20;99.90;;;;;;26039903;22;20222;-70
2022/09/16 18:03:43;;;;;;;0.20;0.00;;;23.70;99.90;;;;;;26039706;22;20227;-71
2022/09/16 18:13:53;;;;;;;0.20;0.00;;;23.00;99.90;;;;;;26011636;22;20191;-70
2022/09/16 18:23:59;;;;;;;0.20;0.00;;;23.10;99.90;;;;;;26010913;22;20175;-70
2022/09/16 18:34:04;;;;;;;0.20;0.00;;;22.70;99.90;;;;;;26035183;22;20200;-71
2022/09/16 18:44:12;;;;;;;0.20;0.00;;;22.50;99.90;;;;;;26008713;22;20223;-71
2022/09/16 18:54:23;;;;;;;0.20;0.00;;;22.10;99.90;;;;;;26037073;22;20261;-71
2022/09/16 19:04:29;;;;;;;0.20;0.00;;;22.00;99.90;;;;;;26034307;22;20184;-71
2022/09/16 19:14:35;;;;;;;0.20;0.00;;;22.10;99.90;;;;;;26031880;22;20185;-72
2022/09/16 19:24:38;;;;;;;0.20;0.00;;;22.20;99.90;;;;;;26031995;22;20259;-75
2022/09/16 19:34:43;;;;;;;0.20;0.00;;;22.20;99.90;;;;;;26004108;22;20293;-73
2022/09/16 19:44:48;;;;;;;0.20;0.00;;;22.20;99.90;;;;;;26031792;22;20183;-72
2022/09/16 19:54:53;;;;;;;0.20;0.00;;;22.30;99.90;;;;;;26031137;22;20210;-72
2022/09/16 20:04:57;;;;;;;0.20;0.00;;;22.50;99.90;;;;;;26008060;22;20191;-73
2022/09/16 20:15:02;;;;;;;0.20;0.00;;;22.40;99.90;;;;;;26034186;22;20204;-71
2022/09/16 20:25:06;;;;;;;0.20;0.00;;;22.40;99.90;;;;;;26033074;22;20164;-70
2022/09/16 20:35:26;;;;;;;0.20;0.00;;;22.50;99.90;;;;;;26008517;22;20206;-71
2022/09/16 20:45:30;;;;;;;0.20;0.00;;;22.20;99.90;;;;;;26035228;22;20224;-70
2022/09/16 20:55:36;;;;;;;0.20;0.00;;;22.00;99.90;;;;;;26037261;22;20259;-71
2022/09/16 21:05:39;;;;;;;0.20;0.00;;;21.80;99.90;;;;;;26034258;22;20234;-66
2022/09/16 21:15:55;;;;;;;0.20;0.00;;;21.80;99.90;;;;;;26043718;22;20339;-71
2022/09/16 21:26:03;;;;;;;0.20;0.00;;;21.70;99.90;;;;;;26044455;22;20156;-72
2022/09/16 21:36:10;;;;;;;0.20;0.00;;;21.60;99.90;;;;;;26042954;22;20255;-72
2022/09/16 21:46:15;;;;;;;0.20;0.00;;;21.60;99.90;;;;;;26043988;22;20167;-72
2022/09/16 21:56:23;;;;;;;0.20;0.00;;;21.70;99.90;;;;;;26042185;22;20203;-71
2022/09/16 22:06:27;;;;;;;0.20;0.00;;;21.70;99.90;;;;;;26016568;22;20716;-72
2022/09/16 22:16:35;;;;;;;0.20;0.00;;;21.80;99.90;;;;;;26043334;22;20273;-71
2022/09/16 22:26:40;;;;;;;0.20;0.00;;;21.70;99.90;;;;;;26014442;22;20167;-72
2022/09/16 22:36:45;;;;;;;0.20;0.00;;;21.60;99.90;;;;;;26016434;22;20199;-71
2022/09/16 22:46:48;;;;;;;0.20;0.00;;;21.40;99.90;;;;;;26015753;22;20210;-71
2022/09/16 22:56:54;;;;;;;0.20;0.00;;;21.20;99.90;;;;;;26041647;22;20195;-71
2022/09/16 23:06:57;;;;;;;0.20;0.00;;;21.20;99.90;;;;;;26014076;22;20247;-70
2022/09/16 23:17:02;;;;;;;0.20;0.00;;;21.10;99.90;;;;;;26042587;22;20239;-70
2022/09/16 23:27:06;;;;;;;0.20;0.00;;;21.30;99.90;;;;;;25989234;22;20159;-71
2022/09/16 23:37:11;;;;;;;0.20;0.00;;;21.10;99.90;;;;;;26040503;22;20196;-71
2022/09/16 23:47:15;;;;;;;0.20;0.00;;;21.10;99.90;;;;;;26040940;22;20216;-71
2022/09/16 23:57:20;;;;;;;0.20;0.00;;;20.90;99.90;;;;;;26039151;22;20255;-71
